Time;durP1;ratioP1;P1;durP2;ratioP2;P2;SDS_P1;SDS_P2;PMS_P1;PMS_P2;Temp;Humidity;BMP_temperature;BMP_pressure;BME280_temperature;BME280_humidity;BME280_pressure;Samples;Min_cycle;Max_cycle;Signal;HPM_P1;HPM_P2
2022/01/14 00:01:32;;;;;;;15.02;5.32;;;7.60;99.90;;;;;;5101998;28;20294;-66
2022/01/14 00:04:00;;;;;;;7.63;4.68;;;7.60;99.90;;;;;;5101782;28;20294;-65
2022/01/14 00:06:29;;;;;;;14.85;4.78;;;7.60;99.90;;;;;;5101448;28;20207;-67
2022/01/14 00:09:05;;;;;;;12.55;4.53;;;7.60;99.90;;;;;;5101421;28;20206;-67
2022/01/14 00:11:34;;;;;;;13.13;4.75;;;7.60;99.90;;;;;;5102495;28;20275;-70
2022/01/14 00:14:10;;;;;;;10.07;5.22;;;7.60;99.90;;;;;;5102668;28;20290;-67
2022/01/14 00:16:38;;;;;;;11.18;5.35;;;7.60;99.90;;;;;;5102847;28;20233;-67
2022/01/14 00:19:06;;;;;;;12.82;5.22;;;7.60;99.90;;;;;;5104555;28;20264;-68
2022/01/14 00:21:38;;;;;;;14.13;4.75;;;7.60;99.90;;;;;;5129891;28;20282;-68
2022/01/14 00:24:09;;;;;;;14.32;6.28;;;7.60;99.90;;;;;;5113608;28;20308;-68
2022/01/14 00:32:15;;;;;;;11.50;5.38;;;7.50;99.90;;;;;;5107933;28;20209;-69
2022/01/14 00:34:42;;;;;;;15.52;5.70;;;7.50;99.90;;;;;;5100522;27;20286;-68
2022/01/14 00:37:12;;;;;;;10.00;5.53;;;7.40;99.90;;;;;;5101162;28;20386;-68
2022/01/14 00:39:40;;;;;;;13.23;4.85;;;7.40;99.90;;;;;;5100288;28;20204;-68
2022/01/14 00:42:09;;;;;;;15.40;5.18;;;7.40;99.90;;;;;;5100784;28;20204;-70
2022/01/14 00:44:37;;;;;;;13.63;5.78;;;7.40;99.90;;;;;;5100426;28;20207;-69
2022/01/14 00:47:06;;;;;;;11.20;5.50;;;7.30;99.90;;;;;;5100685;28;20222;-67
2022/01/14 00:49:33;;;;;;;16.88;5.80;;;7.30;99.90;;;;;;5100887;28;20200;-67
2022/01/14 00:52:02;;;;;;;11.10;5.22;;;7.30;99.90;;;;;;5100081;28;20200;-67
2022/01/14 00:54:31;;;;;;;19.05;5.45;;;7.20;99.90;;;;;;5100530;28;20206;-69
2022/01/14 00:57:15;;;;;;;10.95;5.43;;;7.30;99.90;;;;;;5100350;28;20219;-67
2022/01/14 00:59:42;;;;;;;12.65;5.53;;;7.30;99.90;;;;;;5102423;28;20200;-68
2022/01/14 01:02:10;;;;;;;13.40;5.22;;;7.30;99.90;;;;;;5105302;28;20322;-67
2022/01/14 01:04:40;;;;;;;14.02;6.45;;;7.20;99.90;;;;;;5103197;28;20233;-68
2022/01/14 01:07:10;;;;;;;13.43;5.55;;;7.20;99.90;;;;;;5100416;28;20220;-68
2022/01/14 01:09:45;;;;;;;11.57;6.32;;;7.20;99.90;;;;;;5100743;28;20204;-68
2022/01/14 01:12:25;;;;;;;21.63;5.40;;;7.30;99.90;;;;;;5100893;28;20215;-67
2022/01/14 01:15:04;;;;;;;12.52;5.00;;;7.20;99.90;;;;;;5100286;28;20815;-67
2022/01/14 01:17:32;;;;;;;8.75;6.00;;;7.20;99.90;;;;;;5101521;28;20861;-67
2022/01/14 01:20:01;;;;;;;13.63;4.50;;;7.10;99.90;;;;;;5100142;28;20693;-67
2022/01/14 01:22:28;;;;;;;12.32;4.72;;;7.10;99.90;;;;;;5101182;28;20246;-67
2022/01/14 01:24:57;;;;;;;9.30;4.80;;;7.10;99.90;;;;;;5100631;28;20204;-67
2022/01/14 01:27:25;;;;;;;10.63;4.60;;;7.10;99.90;;;;;;5100610;28;20729;-67
2022/01/14 01:30:00;;;;;;;10.50;5.10;;;7.10;99.90;;;;;;5103365;28;20204;-67
2022/01/14 01:32:28;;;;;;;15.40;5.88;;;7.10;99.90;;;;;;5105069;28;20209;-66
2022/01/14 01:34:55;;;;;;;10.77;4.65;;;7.10;99.90;;;;;;5104025;28;20204;-68
2022/01/14 01:37:23;;;;;;;16.33;6.38;;;7.10;99.90;;;;;;5104108;28;20304;-68
2022/01/14 01:39:51;;;;;;;17.58;5.55;;;7.10;99.90;;;;;;5104247;28;20206;-66
2022/01/14 01:42:26;;;;;;;20.15;5.43;;;7.10;99.90;;;;;;5103732;28;20244;-66
2022/01/14 01:44:54;;;;;;;15.57;5.13;;;7.20;99.90;;;;;;5103545;28;20199;-66
2022/01/14 01:47:23;;;;;;;13.65;5.28;;;7.20;99.90;;;;;;5103000;28;20219;-66
2022/01/14 01:49:50;;;;;;;13.40;5.20;;;7.20;99.90;;;;;;5103045;28;20199;-67
2022/01/14 01:52:18;;;;;;;10.93;4.97;;;7.20;99.90;;;;;;5103265;28;20214;-65
2022/01/14 01:54:46;;;;;;;7.00;4.13;;;7.20;99.90;;;;;;5102851;28;20345;-66
2022/01/14 01:57:14;;;;;;;9.23;4.53;;;7.10;99.90;;;;;;5103408;28;20315;-66
2022/01/14 01:59:43;;;;;;;12.60;3.72;;;7.10;99.90;;;;;;5103304;28;20200;-69
2022/01/14 02:02:11;;;;;;;14.23;4.18;;;7.10;99.90;;;;;;5103461;28;20206;-68
2022/01/14 02:04:39;;;;;;;10.68;4.30;;;7.10;99.90;;;;;;5103057;28;20725;-67
2022/01/14 02:07:07;;;;;;;10.10;4.03;;;7.00;99.90;;;;;;5103218;28;20226;-67
2022/01/14 02:09:35;;;;;;;22.85;5.20;;;7.00;99.90;;;;;;5103075;28;20196;-68
2022/01/14 02:12:09;;;;;;;13.57;4.95;;;7.00;99.90;;;;;;5102514;28;21030;-68
2022/01/14 02:14:54;;;;;;;11.73;3.90;;;7.10;99.90;;;;;;5103466;28;20191;-68
2022/01/14 02:17:34;;;;;;;10.88;4.70;;;7.00;99.90;;;;;;5102434;28;20238;-68
2022/01/14 02:22:56;;;;;;;11.80;5.30;;;7.00;99.90;;;;;;5102780;28;20200;-65
2022/01/14 02:25:29;;;;;;;11.07;5.15;;;7.00;99.90;;;;;;5103163;28;20204;-67
2022/01/14 02:28:00;;;;;;;10.18;4.85;;;7.00;99.90;;;;;;5102122;28;20216;-65
2022/01/14 02:30:30;;;;;;;12.70;4.10;;;7.00;99.90;;;;;;5103351;28;20203;-65
2022/01/14 02:32:58;;;;;;;9.48;4.78;;;7.00;99.90;;;;;;5103740;28;20238;-68
2022/01/14 02:35:28;;;;;;;6.93;3.58;;;7.00;99.90;;;;;;5105832;28;20209;-67
2022/01/14 02:37:56;;;;;;;9.75;4.35;;;7.10;99.90;;;;;;5104799;28;20306;-68
2022/01/14 02:40:25;;;;;;;5.60;4.10;;;7.10;99.90;;;;;;5102454;28;20221;-68
2022/01/14 02:42:55;;;;;;;10.70;3.90;;;7.10;99.90;;;;;;5103428;28;20215;-68
2022/01/14 02:45:27;;;;;;;8.77;4.13;;;7.10;99.90;;;;;;5104118;28;20819;-68
2022/01/14 02:47:55;;;;;;;10.68;4.43;;;7.10;99.90;;;;;;5104065;28;20222;-67
2022/01/14 02:50:24;;;;;;;16.63;5.00;;;7.20;99.90;;;;;;5116509;28;20200;-68
2022/01/14 02:53:01;;;;;;;10.50;3.72;;;7.20;99.90;;;;;;5128427;28;20184;-68
2022/01/14 02:55:30;;;;;;;8.85;3.42;;;7.20;99.90;;;;;;5103909;28;20965;-67
2022/01/14 02:58:00;;;;;;;8.93;4.65;;;7.30;99.90;;;;;;5102829;28;20231;-69
2022/01/14 03:00:30;;;;;;;13.90;4.10;;;7.30;99.90;;;;;;5102545;28;20238;-69
2022/01/14 03:02:59;;;;;;;10.27;3.80;;;7.40;99.90;;;;;;5103271;28;20249;-68
2022/01/14 03:05:30;;;;;;;12.77;3.40;;;7.40;99.90;;;;;;5103097;28;20290;-67
2022/01/14 03:07:59;;;;;;;6.57;3.40;;;7.40;99.90;;;;;;5103357;27;20219;-67
2022/01/14 03:10:27;;;;;;;7.63;4.43;;;7.40;99.90;;;;;;5104995;28;20286;-66
2022/01/14 03:12:55;;;;;;;12.18;4.13;;;7.40;99.90;;;;;;5102299;28;20204;-66
2022/01/14 03:15:23;;;;;;;10.65;4.35;;;7.40;99.90;;;;;;5102591;27;20203;-66
2022/01/14 03:17:52;;;;;;;14.35;3.75;;;7.40;99.90;;;;;;5104166;28;20818;-67
2022/01/14 03:20:43;;;;;;;10.52;3.90;;;7.40;99.90;;;;;;5104447;28;20198;-67
2022/01/14 03:23:14;;;;;;;10.40;4.70;;;7.40;99.90;;;;;;5104597;28;20697;-68
2022/01/14 03:25:52;;;;;;;8.35;3.75;;;7.40;99.90;;;;;;5104441;28;20200;-68
2022/01/14 03:28:22;;;;;;;14.07;3.75;;;7.40;99.90;;;;;;5102598;28;20202;-68
2022/01/14 03:30:52;;;;;;;17.90;5.75;;;7.50;99.90;;;;;;5102125;27;20813;-68
2022/01/14 03:33:21;;;;;;;11.00;4.57;;;7.50;99.90;;;;;;5102501;28;20195;-69
2022/01/14 03:35:49;;;;;;;8.65;4.40;;;7.50;99.90;;;;;;5101938;28;20200;-70
2022/01/14 03:38:18;;;;;;;7.25;3.53;;;7.50;99.90;;;;;;5101700;28;20278;-69
2022/01/14 03:40:46;;;;;;;11.00;4.28;;;7.50;99.90;;;;;;5101899;28;20771;-69
2022/01/14 03:43:14;;;;;;;6.78;4.60;;;7.50;99.90;;;;;;5101796;28;20200;-69
2022/01/14 03:45:42;;;;;;;8.25;3.65;;;7.60;99.90;;;;;;5101247;28;20247;-69
2022/01/14 03:48:10;;;;;;;8.02;3.75;;;7.60;99.90;;;;;;5102395;28;20194;-68
2022/01/14 03:50:38;;;;;;;7.50;3.83;;;7.60;99.90;;;;;;5102270;28;20585;-67
2022/01/14 03:53:06;;;;;;;10.70;4.57;;;7.60;99.90;;;;;;5101893;28;20283;-69
2022/01/14 03:55:39;;;;;;;7.53;3.72;;;7.60;99.90;;;;;;5102051;28;20211;-69
2022/01/14 03:58:24;;;;;;;8.48;3.95;;;7.60;99.90;;;;;;5102555;28;20223;-69
2022/01/14 04:00:52;;;;;;;12.48;3.97;;;7.60;99.90;;;;;;5102187;28;20791;-68
2022/01/14 04:03:20;;;;;;;13.27;4.93;;;7.60;99.90;;;;;;5102118;28;20608;-68
2022/01/14 04:05:47;;;;;;;9.25;4.22;;;7.60;99.90;;;;;;5105174;28;20286;-68
2022/01/14 04:08:15;;;;;;;9.27;4.15;;;7.60;99.90;;;;;;5104664;28;20196;-70
2022/01/14 04:10:46;;;;;;;13.50;4.07;;;7.60;99.90;;;;;;5105069;28;20199;-69
2022/01/14 04:13:19;;;;;;;16.75;5.78;;;7.60;99.90;;;;;;5105786;28;20235;-69
2022/01/14 04:15:48;;;;;;;11.30;4.35;;;7.60;99.90;;;;;;5104881;28;20287;-69
2022/01/14 04:18:18;;;;;;;11.02;4.47;;;7.60;99.90;;;;;;5105533;28;20268;-69
2022/01/14 04:20:47;;;;;;;13.50;3.92;;;7.60;99.90;;;;;;5105366;28;20252;-69
2022/01/14 04:23:18;;;;;;;6.82;4.40;;;7.60;99.90;;;;;;5103861;28;20199;-69
2022/01/14 04:25:48;;;;;;;13.02;4.55;;;7.60;99.90;;;;;;5102600;28;20282;-68
2022/01/14 04:28:18;;;;;;;18.75;6.80;;;7.60;99.90;;;;;;5103380;28;20776;-67
2022/01/14 04:30:46;;;;;;;9.05;3.95;;;7.60;99.90;;;;;;5103135;28;20295;-68
2022/01/14 04:33:14;;;;;;;10.95;4.20;;;7.60;99.90;;;;;;5103556;28;20199;-67
2022/01/14 04:35:42;;;;;;;10.27;4.75;;;7.60;99.90;;;;;;5102453;28;20566;-68
2022/01/14 04:38:10;;;;;;;13.05;5.05;;;7.60;99.90;;;;;;5102179;28;20203;-67
2022/01/14 04:40:39;;;;;;;9.98;4.18;;;7.60;99.90;;;;;;5102523;28;20210;-66
2022/01/14 04:43:09;;;;;;;21.45;5.45;;;7.60;99.90;;;;;;5102948;28;20214;-66
2022/01/14 04:46:01;;;;;;;5.28;3.72;;;7.60;99.90;;;;;;5102882;28;20217;-66
2022/01/14 04:48:30;;;;;;;8.43;4.15;;;7.70;99.90;;;;;;5102321;28;20208;-65
2022/01/14 04:50:59;;;;;;;13.85;5.05;;;7.60;99.90;;;;;;5102159;28;20208;-66
2022/01/14 04:53:27;;;;;;;14.73;5.13;;;7.70;99.90;;;;;;5102543;28;20283;-64
2022/01/14 04:55:56;;;;;;;9.98;4.80;;;7.60;99.90;;;;;;5101925;28;20785;-67
2022/01/14 04:58:26;;;;;;;18.15;4.78;;;7.60;99.90;;;;;;5102529;28;20204;-66
2022/01/14 05:00:54;;;;;;;10.60;3.80;;;7.60;99.90;;;;;;5102093;28;21009;-68
2022/01/14 05:03:23;;;;;;;10.63;4.80;;;7.70;99.90;;;;;;5103544;28;20188;-66
2022/01/14 05:05:55;;;;;;;11.52;4.60;;;7.60;99.90;;;;;;5101820;28;20253;-68
2022/01/14 05:08:26;;;;;;;9.20;4.05;;;7.60;99.90;;;;;;5102767;28;20241;-66
2022/01/14 05:11:04;;;;;;;16.17;4.57;;;7.60;99.90;;;;;;5102102;28;20637;-67
2022/01/14 05:13:33;;;;;;;8.32;3.72;;;7.60;99.90;;;;;;5103836;28;20195;-65
2022/01/14 05:16:01;;;;;;;11.48;3.83;;;7.50;99.90;;;;;;5102755;28;20223;-68
2022/01/14 05:18:30;;;;;;;9.38;4.50;;;7.60;99.90;;;;;;5103069;28;20319;-67
2022/01/14 05:20:58;;;;;;;16.45;3.53;;;7.50;99.90;;;;;;5118727;28;20231;-66
2022/01/14 05:23:26;;;;;;;9.77;3.92;;;7.50;99.90;;;;;;5125840;28;20230;-66
2022/01/14 05:25:54;;;;;;;7.82;3.20;;;7.50;99.90;;;;;;5103342;28;20287;-68
2022/01/14 05:28:21;;;;;;;13.10;3.50;;;7.50;99.90;;;;;;5103172;28;20282;-64
2022/01/14 05:30:51;;;;;;;11.40;4.00;;;7.50;99.90;;;;;;5106580;28;20240;-64
2022/01/14 05:33:20;;;;;;;9.82;3.50;;;7.50;99.90;;;;;;5102720;27;20231;-64
2022/01/14 05:35:48;;;;;;;9.38;3.38;;;7.40;99.90;;;;;;5103010;28;20191;-64
2022/01/14 05:38:16;;;;;;;14.07;4.07;;;7.40;99.90;;;;;;5102101;28;20226;-65
2022/01/14 05:40:44;;;;;;;7.82;5.30;;;7.40;99.90;;;;;;5100799;28;20252;-65
2022/01/14 05:43:11;;;;;;;16.48;3.50;;;7.40;99.90;;;;;;5101162;28;20286;-65
2022/01/14 05:45:39;;;;;;;7.22;3.70;;;7.40;99.90;;;;;;5100387;28;20593;-67
2022/01/14 05:48:09;;;;;;;13.90;4.93;;;7.40;99.90;;;;;;5101812;28;20230;-66
2022/01/14 05:50:37;;;;;;;16.55;4.70;;;7.40;99.90;;;;;;5100785;28;20283;-66
2022/01/14 05:53:06;;;;;;;7.07;3.25;;;7.40;99.90;;;;;;5101120;28;20223;-66
2022/01/14 05:55:34;;;;;;;9.43;3.47;;;7.40;99.90;;;;;;5101506;28;20212;-66
2022/01/14 05:58:03;;;;;;;11.73;4.10;;;7.40;99.90;;;;;;5100650;28;20710;-66
2022/01/14 06:00:32;;;;;;;14.88;3.80;;;7.30;99.90;;;;;;5101460;28;20536;-66
2022/01/14 06:03:00;;;;;;;8.00;4.13;;;7.30;99.90;;;;;;5101501;28;20188;-65
2022/01/14 06:05:35;;;;;;;13.98;4.53;;;7.30;99.90;;;;;;5089822;28;20230;-66
2022/01/14 06:08:03;;;;;;;13.50;4.05;;;7.20;99.90;;;;;;5081657;28;20227;-66
2022/01/14 06:10:32;;;;;;;11.63;3.60;;;7.20;99.90;;;;;;5080364;28;20200;-67
2022/01/14 06:13:00;;;;;;;10.43;3.70;;;7.10;99.90;;;;;;5081623;28;20288;-66
2022/01/14 06:15:28;;;;;;;9.30;3.50;;;7.10;99.90;;;;;;5082063;28;20212;-66
2022/01/14 06:17:56;;;;;;;10.60;4.50;;;7.00;99.90;;;;;;5085045;28;20914;-68
2022/01/14 06:20:24;;;;;;;6.18;4.05;;;7.00;99.90;;;;;;5084960;28;20303;-65
2022/01/14 06:22:53;;;;;;;10.75;3.67;;;7.00;99.90;;;;;;5085647;28;20295;-66
2022/01/14 06:25:21;;;;;;;13.00;3.50;;;7.00;99.90;;;;;;5084557;28;20683;-66
2022/01/14 06:27:49;;;;;;;11.75;4.45;;;7.00;99.90;;;;;;5083937;28;20663;-66
2022/01/14 06:30:24;;;;;;;10.23;3.70;;;7.00;99.90;;;;;;5084682;28;20193;-66
2022/01/14 06:32:53;;;;;;;9.63;3.40;;;6.90;99.90;;;;;;5084076;28;20279;-66
2022/01/14 06:35:21;;;;;;;20.27;5.10;;;6.90;99.90;;;;;;5085470;28;20220;-65
2022/01/14 06:37:57;;;;;;;13.75;4.20;;;6.90;99.90;;;;;;5083847;28;20429;-65
2022/01/14 06:40:26;;;;;;;9.05;3.33;;;6.90;99.90;;;;;;5084294;28;20208;-66
2022/01/14 06:42:54;;;;;;;8.63;3.70;;;6.90;99.90;;;;;;5083778;28;20208;-66
2022/01/14 06:45:23;;;;;;;20.25;4.57;;;6.90;99.90;;;;;;5083462;28;20900;-66
2022/01/14 06:47:52;;;;;;;10.35;4.40;;;6.90;99.90;;;;;;5083125;28;20220;-66
2022/01/14 06:50:21;;;;;;;14.88;4.30;;;7.00;99.90;;;;;;5083679;28;20796;-66
2022/01/14 06:52:49;;;;;;;19.83;4.53;;;7.00;99.90;;;;;;5083998;28;20204;-66
2022/01/14 06:55:18;;;;;;;9.52;3.05;;;6.90;99.90;;;;;;5094130;28;20378;-66
2022/01/14 06:57:47;;;;;;;14.93;3.80;;;6.90;99.90;;;;;;5084728;28;20297;-69
2022/01/14 07:00:17;;;;;;;7.95;3.97;;;7.00;99.90;;;;;;5095620;28;20255;-67
2022/01/14 07:02:45;;;;;;;15.57;4.47;;;7.10;99.90;;;;;;5105565;28;20195;-64
2022/01/14 07:05:13;;;;;;;15.60;5.03;;;7.10;99.90;;;;;;5104219;28;20247;-65
2022/01/14 07:07:41;;;;;;;8.73;3.85;;;7.10;99.90;;;;;;5103346;28;20450;-66
2022/01/14 07:10:13;;;;;;;15.30;4.88;;;7.10;99.90;;;;;;5103043;27;20204;-65
2022/01/14 07:12:45;;;;;;;17.50;5.03;;;7.10;99.90;;;;;;5102967;28;20284;-64
2022/01/14 07:15:17;;;;;;;13.82;4.70;;;7.10;99.90;;;;;;5103537;28;20226;-65
2022/01/14 07:17:45;;;;;;;9.82;3.58;;;7.20;99.90;;;;;;5103769;28;20224;-64
2022/01/14 07:20:17;;;;;;;19.42;4.10;;;7.20;99.90;;;;;;5104343;28;20220;-64
2022/01/14 07:22:47;;;;;;;14.68;4.55;;;7.20;99.90;;;;;;5103121;28;20810;-64
2022/01/14 07:25:18;;;;;;;14.18;4.75;;;7.20;99.90;;;;;;5103257;28;20199;-64
2022/01/14 07:27:46;;;;;;;10.07;4.47;;;7.30;99.90;;;;;;5102354;28;20854;-64
2022/01/14 07:30:16;;;;;;;10.57;3.50;;;7.30;99.90;;;;;;5102302;28;20687;-64
2022/01/14 07:32:44;;;;;;;10.15;3.80;;;7.20;99.90;;;;;;5102187;28;20291;-64
2022/01/14 07:35:12;;;;;;;19.08;4.43;;;7.30;99.90;;;;;;5102239;28;20279;-67
2022/01/14 07:37:41;;;;;;;18.98;4.75;;;7.40;99.90;;;;;;5091103;28;20270;-65
2022/01/14 07:40:10;;;;;;;11.95;4.30;;;7.40;99.90;;;;;;5082043;28;20276;-63
2022/01/14 07:42:38;;;;;;;18.15;5.47;;;7.40;99.90;;;;;;5081658;28;20224;-69
2022/01/14 07:45:07;;;;;;;12.25;4.75;;;7.40;99.90;;;;;;5081787;28;20235;-67
2022/01/14 07:47:36;;;;;;;9.52;3.08;;;7.50;99.90;;;;;;5091943;28;20742;-66
2022/01/14 07:50:05;;;;;;;8.20;3.55;;;7.50;99.90;;;;;;5094082;28;20233;-66
2022/01/14 07:52:33;;;;;;;12.80;3.70;;;7.50;99.90;;;;;;5109017;28;20215;-66
2022/01/14 07:55:01;;;;;;;9.95;4.43;;;7.50;99.90;;;;;;5087826;28;20295;-67
2022/01/14 07:57:29;;;;;;;13.60;4.22;;;7.60;99.90;;;;;;5081489;28;20319;-66
2022/01/14 07:59:57;;;;;;;16.40;4.30;;;7.60;99.90;;;;;;5096472;28;20684;-67
2022/01/14 08:02:25;;;;;;;11.45;3.67;;;7.70;99.90;;;;;;5100327;28;20294;-66
2022/01/14 08:04:55;;;;;;;8.35;3.67;;;7.60;99.90;;;;;;5101978;28;20267;-66
2022/01/14 08:07:24;;;;;;;15.80;3.42;;;7.70;99.90;;;;;;5102494;28;20307;-67
2022/01/14 08:09:53;;;;;;;6.32;3.00;;;7.70;99.90;;;;;;5101977;28;20207;-67
2022/01/14 08:12:21;;;;;;;12.18;4.80;;;7.70;99.90;;;;;;5102498;28;20223;-65
2022/01/14 08:14:49;;;;;;;12.85;3.97;;;7.80;99.90;;;;;;5102348;28;20227;-65
2022/01/14 08:17:20;;;;;;;13.77;4.13;;;7.80;99.90;;;;;;5101752;28;20310;-66
2022/01/14 08:19:49;;;;;;;13.27;4.00;;;7.70;99.90;;;;;;5100337;28;20797;-65
2022/01/14 08:22:18;;;;;;;13.88;4.50;;;7.80;99.90;;;;;;5100670;28;20276;-65
2022/01/14 08:24:46;;;;;;;16.95;5.57;;;7.80;99.90;;;;;;5101088;28;20204;-65
2022/01/14 08:27:14;;;;;;;16.27;4.35;;;7.80;99.90;;;;;;5100246;28;20319;-65
2022/01/14 08:29:42;;;;;;;12.52;4.18;;;7.80;99.90;;;;;;5100813;28;20259;-66
2022/01/14 08:32:10;;;;;;;13.77;5.28;;;7.80;99.90;;;;;;5100154;28;20459;-65
2022/01/14 08:34:37;;;;;;;16.95;4.45;;;7.80;99.90;;;;;;5099684;28;20294;-66
2022/01/14 08:37:06;;;;;;;17.23;5.20;;;7.80;99.90;;;;;;5100318;28;20856;-64
2022/01/14 08:39:36;;;;;;;11.45;3.33;;;7.90;99.90;;;;;;5099335;28;20762;-64
2022/01/14 08:42:05;;;;;;;19.00;4.85;;;7.80;99.90;;;;;;5100031;28;20310;-64
2022/01/14 08:44:32;;;;;;;11.73;3.60;;;7.80;99.90;;;;;;5100350;28;20294;-66
2022/01/14 08:47:01;;;;;;;11.15;4.38;;;7.80;99.90;;;;;;5102894;28;20226;-70
2022/01/14 08:49:29;;;;;;;14.93;5.55;;;7.70;99.90;;;;;;5098599;28;20196;-63
2022/01/14 08:51:57;;;;;;;11.23;4.50;;;7.70;99.90;;;;;;5088882;28;20288;-64
2022/01/14 08:54:25;;;;;;;14.13;3.75;;;7.60;99.90;;;;;;5090156;28;20697;-65
2022/01/14 08:56:54;;;;;;;14.32;4.75;;;7.50;99.90;;;;;;5084399;28;20885;-65
2022/01/14 08:59:23;;;;;;;12.10;4.57;;;7.50;99.90;;;;;;5091327;28;20199;-65
2022/01/14 09:01:51;;;;;;;9.15;4.43;;;7.60;99.90;;;;;;5079981;28;20227;-66
2022/01/14 09:04:19;;;;;;;12.20;4.30;;;7.50;99.90;;;;;;5095648;28;20191;-64
2022/01/14 09:06:47;;;;;;;15.98;5.13;;;7.50;99.90;;;;;;5094659;28;20402;-64
2022/01/14 09:09:16;;;;;;;16.75;4.25;;;7.50;99.90;;;;;;5095662;28;20551;-75
2022/01/14 09:11:44;;;;;;;10.40;4.28;;;7.50;99.90;;;;;;5104046;28;20278;-67
2022/01/14 09:14:13;;;;;;;15.23;4.30;;;7.50;99.90;;;;;;5083891;28;20295;-66
2022/01/14 09:16:41;;;;;;;12.68;4.22;;;7.40;99.90;;;;;;5080354;28;20273;-66
2022/01/14 09:19:09;;;;;;;12.43;4.22;;;7.40;99.90;;;;;;5083114;28;20230;-68
2022/01/14 09:21:37;;;;;;;18.10;4.45;;;7.40;99.90;;;;;;5081312;28;20230;-68
2022/01/14 09:24:08;;;;;;;16.65;5.07;;;7.40;99.90;;;;;;5092771;28;20271;-67
2022/01/14 09:26:38;;;;;;;14.95;5.88;;;7.40;99.90;;;;;;5098555;28;20223;-69
2022/01/14 09:29:08;;;;;;;10.40;4.10;;;7.40;99.90;;;;;;5085837;28;20683;-67
2022/01/14 09:31:40;;;;;;;13.65;5.28;;;7.40;99.90;;;;;;5085227;28;20230;-69
2022/01/14 09:34:12;;;;;;;12.18;5.97;;;7.40;99.90;;;;;;5080308;28;20892;-67
2022/01/14 09:36:40;;;;;;;22.33;5.10;;;7.40;99.90;;;;;;5080692;28;20220;-70
2022/01/14 09:39:09;;;;;;;19.20;5.88;;;7.40;99.90;;;;;;5082217;28;20861;-69
2022/01/14 09:41:37;;;;;;;12.15;4.75;;;7.30;99.90;;;;;;5081552;28;20246;-70
2022/01/14 09:44:06;;;;;;;19.52;5.70;;;7.30;99.90;;;;;;5082437;28;20204;-70
2022/01/14 09:46:34;;;;;;;10.25;4.88;;;7.30;99.90;;;;;;5081323;28;20246;-68
2022/01/14 09:49:03;;;;;;;11.45;5.78;;;7.30;99.90;;;;;;5081201;28;20292;-68
2022/01/14 09:51:31;;;;;;;17.30;5.53;;;7.30;99.90;;;;;;5083758;28;20192;-69
2022/01/14 09:53:59;;;;;;;7.18;5.45;;;7.30;99.90;;;;;;5084543;28;20355;-69
2022/01/14 09:56:27;;;;;;;16.10;5.63;;;7.30;99.90;;;;;;5083593;28;20315;-70
2022/01/14 09:58:55;;;;;;;11.65;5.80;;;7.40;99.90;;;;;;5083700;28;20290;-69
2022/01/14 10:01:24;;;;;;;9.85;5.55;;;7.40;99.90;;;;;;5083941;28;20633;-68
2022/01/14 10:03:55;;;;;;;25.88;6.70;;;7.40;99.90;;;;;;5089911;28;20691;-70
2022/01/14 10:06:38;;;;;;;21.15;6.32;;;7.40;99.90;;;;;;5087933;28;20216;-68
2022/01/14 10:09:09;;;;;;;17.67;6.80;;;7.40;99.90;;;;;;5086151;28;20275;-70
2022/01/14 10:11:39;;;;;;;21.35;6.85;;;7.40;99.90;;;;;;5082903;28;20227;-69
2022/01/14 10:14:10;;;;;;;16.42;5.30;;;7.40;99.90;;;;;;5083826;28;20182;-69
2022/01/14 10:16:41;;;;;;;12.77;5.20;;;7.40;99.90;;;;;;5083876;28;20783;-68
2022/01/14 10:19:24;;;;;;;10.63;4.50;;;7.40;99.90;;;;;;5083860;28;20271;-68
2022/01/14 10:21:55;;;;;;;15.38;5.40;;;7.40;99.90;;;;;;5099461;28;20224;-68
2022/01/14 10:24:25;;;;;;;10.20;5.00;;;7.50;99.90;;;;;;5109584;28;20255;-68
2022/01/14 10:26:56;;;;;;;10.10;4.80;;;7.50;99.90;;;;;;5085417;28;20315;-68
2022/01/14 10:29:30;;;;;;;14.68;7.38;;;7.50;99.90;;;;;;5083225;28;20204;-67
2022/01/14 10:31:59;;;;;;;11.30;4.60;;;7.50;99.90;;;;;;5082909;27;20239;-67
2022/01/14 10:34:30;;;;;;;13.32;5.65;;;7.50;99.90;;;;;;5082665;28;20299;-70
2022/01/14 10:37:14;;;;;;;12.60;4.75;;;7.50;99.90;;;;;;5083531;28;20924;-66
2022/01/14 10:39:47;;;;;;;10.35;5.00;;;7.50;99.90;;;;;;5083544;28;20698;-69
2022/01/14 10:42:27;;;;;;;9.57;5.30;;;7.60;99.90;;;;;;5082320;28;20220;-67
2022/01/14 10:45:17;;;;;;;10.23;4.63;;;7.60;99.90;;;;;;5081698;28;20215;-67
2022/01/14 10:47:56;;;;;;;12.35;4.50;;;7.60;99.90;;;;;;5082338;28;20220;-67
2022/01/14 10:50:32;;;;;;;15.50;4.07;;;7.60;99.90;;;;;;5087358;28;20280;-67
2022/01/14 10:53:03;;;;;;;6.38;4.10;;;7.50;99.90;;;;;;5082480;28;20296;-66
2022/01/14 10:55:34;;;;;;;10.35;3.92;;;7.60;99.90;;;;;;5081753;28;20854;-66
2022/01/14 10:58:04;;;;;;;8.40;3.40;;;7.60;99.90;;;;;;5081838;28;20220;-67
2022/01/14 11:00:49;;;;;;;10.07;3.70;;;7.60;99.90;;;;;;5081726;28;20199;-67
2022/01/14 11:03:33;;;;;;;5.43;3.13;;;7.50;99.90;;;;;;5079939;28;20216;-67
2022/01/14 11:06:19;;;;;;;11.93;3.92;;;7.50;99.90;;;;;;5081097;28;20350;-65
2022/01/14 11:08:50;;;;;;;7.95;3.47;;;7.60;99.90;;;;;;5082214;28;20224;-69
2022/01/14 11:11:18;;;;;;;6.45;3.55;;;7.60;99.90;;;;;;5081700;28;20227;-66
2022/01/14 11:13:46;;;;;;;6.85;2.75;;;7.60;99.90;;;;;;5081074;28;20356;-66
2022/01/14 11:16:15;;;;;;;6.57;3.35;;;7.60;99.90;;;;;;5081127;28;20223;-67
2022/01/14 11:18:45;;;;;;;7.30;3.33;;;7.60;99.90;;;;;;5082176;28;20262;-66
2022/01/14 11:24:03;;;;;;;6.10;3.10;;;7.60;99.90;;;;;;5080587;28;20311;-66
2022/01/14 11:26:35;;;;;;;6.70;2.65;;;7.60;99.90;;;;;;5081046;28;20220;-69
2022/01/14 11:29:06;;;;;;;9.43;3.45;;;7.60;99.90;;;;;;5082613;28;20192;-68
2022/01/14 11:31:36;;;;;;;4.20;3.85;;;7.60;99.90;;;;;;5080510;28;20224;-68
2022/01/14 11:34:09;;;;;;;5.45;3.38;;;7.70;99.90;;;;;;5080761;28;20215;-68
2022/01/14 11:36:52;;;;;;;3.28;2.22;;;7.70;99.90;;;;;;5083449;28;20288;-68
2022/01/14 11:39:24;;;;;;;4.95;2.80;;;7.80;99.90;;;;;;5083942;28;20224;-68
2022/01/14 11:41:55;;;;;;;6.15;3.70;;;7.80;99.90;;;;;;5080842;28;20760;-68
2022/01/14 11:44:57;;;;;;;12.23;3.50;;;7.80;99.90;;;;;;5080549;28;20226;-68
2022/01/14 11:47:48;;;;;;;4.13;2.60;;;7.80;99.90;;;;;;5080437;28;20884;-68
2022/01/14 11:50:47;;;;;;;7.43;2.47;;;7.80;99.90;;;;;;5080562;28;20197;-68
2022/01/14 11:53:36;;;;;;;3.55;2.28;;;7.90;99.90;;;;;;5079735;28;20200;-68
2022/01/14 11:56:08;;;;;;;2.83;2.58;;;7.80;99.90;;;;;;5080636;28;20316;-68
2022/01/14 11:58:36;;;;;;;6.50;2.35;;;7.90;99.90;;;;;;5080419;28;20235;-68
2022/01/14 12:01:05;;;;;;;2.97;2.00;;;7.90;99.90;;;;;;5080277;28;20210;-68
2022/01/14 12:03:33;;;;;;;2.55;1.90;;;7.90;99.90;;;;;;5080114;28;20274;-71
2022/01/14 12:06:06;;;;;;;2.50;2.30;;;7.90;99.90;;;;;;5080007;28;20755;-69
2022/01/14 12:08:36;;;;;;;2.50;2.30;;;7.90;99.90;;;;;;5081063;28;20211;-68
2022/01/14 12:11:24;;;;;;;4.50;2.20;;;8.00;99.90;;;;;;5080296;28;20226;-68
2022/01/14 12:13:55;;;;;;;5.30;2.13;;;8.00;99.90;;;;;;5079069;28;20200;-68
2022/01/14 12:16:38;;;;;;;2.88;2.10;;;7.90;99.90;;;;;;5080325;28;20734;-68
2022/01/14 12:19:08;;;;;;;4.82;2.55;;;7.90;99.90;;;;;;5080294;28;20262;-68
2022/01/14 12:22:01;;;;;;;4.22;2.35;;;7.90;99.90;;;;;;5079751;28;20235;-68
2022/01/14 12:24:32;;;;;;;3.10;2.55;;;7.90;99.90;;;;;;5065727;28;20327;-68
2022/01/14 12:27:25;;;;;;;6.60;2.03;;;7.90;99.90;;;;;;5081092;28;20221;-68
2022/01/14 12:30:03;;;;;;;4.70;2.40;;;7.90;99.90;;;;;;5085390;28;20347;-67
2022/01/14 12:32:36;;;;;;;2.50;2.30;;;7.90;99.90;;;;;;5081658;28;20200;-67
2022/01/14 12:35:12;;;;;;;2.70;2.50;;;7.90;99.90;;;;;;5081420;28;20258;-68
2022/01/14 12:37:43;;;;;;;7.47;2.47;;;7.90;99.90;;;;;;5080599;28;20221;-67
2022/01/14 12:40:16;;;;;;;2.47;2.30;;;7.90;99.90;;;;;;5079697;28;20216;-67
2022/01/14 12:42:53;;;;;;;6.20;2.85;;;7.90;99.90;;;;;;5080655;28;20219;-67
2022/01/14 12:45:41;;;;;;;2.20;1.95;;;7.90;99.90;;;;;;5080656;28;20238;-67
2022/01/14 12:48:32;;;;;;;3.05;2.22;;;8.00;99.90;;;;;;5082397;28;20200;-68
2022/01/14 12:51:09;;;;;;;2.70;2.53;;;7.90;99.90;;;;;;5090299;28;20200;-67
2022/01/14 12:53:37;;;;;;;5.97;2.80;;;8.00;99.90;;;;;;5097433;28;20234;-67
2022/01/14 12:56:15;;;;;;;5.63;2.83;;;8.00;99.90;;;;;;5098865;28;20220;-68
2022/01/14 12:58:56;;;;;;;5.00;2.60;;;8.00;99.90;;;;;;5104661;28;20200;-68
2022/01/14 13:01:33;;;;;;;2.65;2.45;;;8.00;99.90;;;;;;5082275;28;20265;-68
2022/01/14 13:04:04;;;;;;;2.60;2.40;;;8.00;99.90;;;;;;5079629;28;20298;-66
2022/01/14 13:06:47;;;;;;;8.27;3.33;;;8.00;99.90;;;;;;5080935;28;20308;-64
2022/01/14 13:09:19;;;;;;;7.65;3.78;;;8.10;99.90;;;;;;5100601;28;20195;-72
2022/01/14 13:11:49;;;;;;;8.77;3.65;;;8.10;99.90;;;;;;5100945;28;20210;-67
2022/01/14 13:14:25;;;;;;;3.40;2.70;;;8.10;99.90;;;;;;5100971;28;20275;-73
2022/01/14 13:16:54;;;;;;;3.58;3.28;;;8.10;99.90;;;;;;5100308;28;20669;-72
2022/01/14 13:19:27;;;;;;;6.82;3.15;;;8.10;99.90;;;;;;5101288;28;20202;-67
2022/01/14 13:21:59;;;;;;;12.30;3.67;;;8.10;99.90;;;;;;5100334;28;20221;-74